Data for 05/26/2008

Time Sea-Level Adjusted Pressure Absolute Pressure Temperature Relative Humidity Dew Point   
(mb) (inHg) (mb) (inHg) (C) (F) (%) (C) (F)
00:05 1017 30.03 846 24.98 7.5 45.5 90 6 42.8
00:10 1017 30.03 846 24.98 7.5 45.5 90 5.9 42.7
00:15 1017 30.03 846 24.98 7.6 45.6 90 6 42.7
00:20 1017 30.03 846 24.98 7.6 45.8 89 6 42.8
00:25 1017 30.03 846 24.98 7.7 45.9 89 6.1 42.9
00:30 1017 30.03 846 24.98 7.8 46 90 6.2 43.2
00:35 1017 30.03 846 24.98 7.8 46.1 89 6.1 43.1
00:40 1017 30.03 846 24.98 7.8 46.1 89 6.1 43
00:45 1017 30.03 846 24.98 7.8 46.1 89 6.1 42.9
00:50 1017 30.03 846 24.98 7.8 46.1 88 6 42.8
00:55 1017 30.03 846 24.98 7.8 46.1 87 5.7 42.3
01:00 1017 30.03 846 24.98 7.9 46.1 85 5.6 42
01:05 1017 30.03 846 24.98 7.9 46.1 86 5.6 42.1
01:10 1017 30.03 846 24.98 7.8 46 86 5.6 42.1
01:15 1017 30.03 846 24.98 7.7 45.8 86 5.6 42
01:20 1017 30.03 846 24.98 7.6 45.6 87 5.5 41.9
01:25 1017 30.03 846 24.98 7.5 45.5 87 5.5 41.8
01:30 1017 30.03 846 24.98 7.5 45.4 87 5.4 41.8
01:35 1017 30.03 846 24.98 7.4 45.3 87 5.4 41.7
01:40 1017 30.03 846 24.98 7.4 45.3 88 5.5 41.8
01:45 1017 30.03 846 24.98 7.4 45.3 88 5.4 41.8
01:50 1017 30.03 846 24.98 7.4 45.3 87 5.4 41.8
01:55 1017 30.03 846 24.98 7.4 45.4 88 5.5 41.9
02:00 1017 30.03 846 24.98 7.4 45.3 88 5.5 41.8
02:05 1017 30.03 846 24.98 7.3 45.2 88 5.5 41.8
02:10 1017 30.03 846 24.98 7.3 45.2 88 5.5 41.9
02:15 1017 30.03 846 24.98 7.3 45.1 88 5.5 41.8
02:20 1017 30.03 846 24.98 7.2 45 88 5.5 41.8
02:25 1017 30.03 846 24.98 7.2 45 89 5.4 41.8
02:30 1017 30.03 846 24.98 7.2 44.9 89 5.5 41.8
02:35 1017 30.03 846 24.98 7.2 44.9 89 5.5 41.9
02:40 1017 30.03 846 24.98 7.2 44.9 89 5.4 41.8
02:45 1017 30.03 846 24.98 7.2 45 89 5.5 41.8
02:50 1017 30.03 846 24.98 7.2 45 89 5.5 41.8
02:55 1017 30.03 846 24.98 7.2 45 89 5.5 41.9
03:00 1017 30.03 846 24.98 7.2 45 89 5.5 41.9
03:05 1017 30.03 846 24.98 7.2 45 89 5.4 41.8
03:10 1017 30.03 846 24.98 7.2 45 88 5.4 41.7
03:15 1017 30.03 846 24.98 7.3 45.1 88 5.4 41.7
03:20 1017 30.03 846 24.98 7.3 45.2 87 5.3 41.5
03:25 1017 30.03 846 24.98 7.4 45.3 87 5.3 41.6
03:30 1017 30.03 846 24.98 7.4 45.2 87 5.4 41.6
03:35 1016 30 846 24.98 7.3 45.1 87 5.3 41.6
03:40 1016 30 846 24.98 7.3 45.1 87 5.3 41.6
03:45 1016 30 846 24.98 7.2 45 88 5.3 41.6
03:50 1016 30 845 24.95 7.2 45 88 5.3 41.6
03:55 1016 30 845 24.95 7.2 45 88 5.3 41.5
04:00 1016 30 846 24.98 7.2 45 88 5.3 41.5
04:05 1016 30 846 24.98 7.2 44.9 88 5.3 41.5
04:10 1016 30 846 24.98 7.1 44.8 88 5.2 41.4
04:15 1016 30 845 24.95 7.1 44.7 87 5 41.1
04:20 1016 30 845 24.95 7.1 44.7 87 5 41.1
04:25 1016 30 845 24.95 7 44.6 87 5 41
04:30 1016 30 846 24.98 7 44.5 87 4.9 40.9
04:35 1016 30 846 24.98 6.9 44.5 87 5 40.9
04:40 1016 30 845 24.95 6.8 44.3 87 4.8 40.7
04:45 1016 30 845 24.95 6.9 44.4 86 4.8 40.6
04:50 1016 30 845 24.95 6.9 44.4 87 4.8 40.6
04:55 1016 30 845 24.95 6.8 44.3 86 4.7 40.5
05:00 1016 30 845 24.95 6.9 44.4 86 4.7 40.4
05:05 1016 30 845 24.95 6.8 44.3 86 4.7 40.5
05:10 1016 30 845 24.95 6.8 44.2 86 4.6 40.4
05:15 1016 30 845 24.95 6.8 44.2 87 4.7 40.5
05:20 1016 30 845 24.95 6.7 44.1 87 4.7 40.5
05:25 1016 30 845 24.95 6.7 44.1 86 4.6 40.2
05:30 1016 30 845 24.95 6.8 44.2 86 4.6 40.3
05:35 1016 30 845 24.95 6.7 44.1 86 4.5 40.2
05:40 1016 30 845 24.95 6.8 44.2 86 4.5 40.2
05:45 1016 30 845 24.95 6.7 44 86 4.6 40.2
05:50 1016 30 845 24.95 6.6 43.9 86 4.5 40
05:55 1016 30 845 24.95 6.7 44 86 4.5 40.1
06:00 1016 30 845 24.95 6.6 43.9 86 4.5 40.1
06:05 1016 30 845 24.95 6.5 43.8 87 4.5 40.1
06:10 1016 30 845 24.95 6.5 43.8 87 4.5 40
06:15 1016 30 845 24.95 6.5 43.7 86 4.4 39.9
06:20 1016 30 845 24.95 6.5 43.7 86 4.3 39.8
06:25 1016 30 845 24.95 6.4 43.6 86 4.2 39.6
06:30 1016 30 845 24.95 6.5 43.7 85 4.2 39.6
06:35 1016 30 845 24.95 6.5 43.7 85 4.2 39.5
06:40 1016 30 845 24.95 6.5 43.8 84 4.1 39.3
06:45 1016 30 845 24.95 6.7 44 83 4 39.3
06:50 1016 30 845 24.95 6.8 44.3 83 4.1 39.3
06:55 1016 30 845 24.95 6.9 44.3 83 4.1 39.4
07:00 1016 30 845 24.95 6.9 44.5 82 4.1 39.4
07:05 1016 30 845 24.95 7 44.6 82 4.1 39.5
07:10 1016 30 845 24.95 6.9 44.4 83 4.2 39.5
07:15 1016 30 845 24.95 6.9 44.3 83 4.2 39.6
07:20 1016 30 845 24.95 6.8 44.2 84 4.3 39.7
07:25 1016 30 845 24.95 6.7 44 85 4.3 39.7
07:30 1016 30 845 24.95 6.5 43.8 85 4.2 39.6
07:35 1016 30 845 24.95 6.4 43.6 85 4.2 39.5
07:40 1016 30 845 24.95 6.4 43.5 86 4.2 39.5
07:45 1016 30 845 24.95 6.4 43.5 86 4.1 39.5
07:50 1016 30 845 24.95 6.3 43.3 86 4.1 39.4
07:55 1016 30 845 24.95 6.3 43.3 85 4 39.2
08:00 1016 30 845 24.95 6.3 43.3 86 4.1 39.3
08:05 1016 30 845 24.95 6.3 43.3 85 4 39.2
08:10 1016 30 845 24.95 6.3 43.3 84 3.8 38.9
08:15 1016 30 845 24.95 6.4 43.5 84 3.9 39
08:20 1016 30 845 24.95 6.4 43.5 85 4 39.2
08:25 1016 30 845 24.95 6.4 43.5 85 4.1 39.3
08:30 1016 30 845 24.95 6.4 43.4 85 4 39.1
08:35 1016 30 845 24.95 6.4 43.5 84 3.8 38.9
08:40 1016 30 845 24.95 6.5 43.6 83 3.8 38.9
08:45 1016 30 845 24.95 6.4 43.5 83 3.6 38.6
08:50 1016 30 845 24.95 6.3 43.3 83 3.6 38.4
08:55 1016 30 845 24.95 6.2 43.2 83 3.6 38.5
09:00 1016 30 845 24.95 6.2 43.1 83 3.6 38.4
09:05 1016 30 845 24.95 6.1 43 83 3.5 38.2
09:10 1016 30 845 24.95 6.1 43 84 3.6 38.4
09:15 1016 30 845 24.95 6.1 43 83 3.5 38.4
09:20 1016 30 845 24.95 6.1 43.1 84 3.6 38.5
09:25 1016 30 845 24.95 6.3 43.4 82 3.5 38.3
09:30 1016 30 845 24.95 6.4 43.5 82 3.5 38.3
09:35 1016 30 845 24.95 6.3 43.4 82 3.4 38.1
09:40 1016 30 845 24.95 6.4 43.5 81 3.4 38
09:45 1016 30 845 24.95 6.4 43.6 80 3.3 38
09:50 1016 30 845 24.95 6.5 43.7 80 3.2 37.8
09:55 1016 30 845 24.95 6.5 43.7 80 3.3 38
10:00 1016 30 845 24.95 6.5 43.7 80 3.3 37.9
10:05 1016 30 845 24.95 6.5 43.7 80 3.3 38
10:10 1016 30 845 24.95 6.4 43.6 80 3.2 37.7
10:15 1016 30 845 24.95 6.4 43.6 81 3.3 38
10:20 1016 30 845 24.95 6.4 43.6 80 3.2 37.7
10:25 1016 30 845 24.95 6.5 43.6 80 3.2 37.7
10:30 1016 30 845 24.95 6.6 43.9 79 3.3 37.9
10:35 1016 30 845 24.95 6.6 43.9 79 3.3 37.9
10:40 1016 30 845 24.95 6.4 43.5 79 3.1 37.5
10:45 1016 30 845 24.95 6.3 43.4 79 2.9 37.2
10:50 1016 30 845 24.95 6.4 43.5 77 2.7 36.9
10:55 1016 30 845 24.95 6.4 43.6 77 2.8 37
11:00 1016 30 845 24.95 6.5 43.7 77 2.8 37.1
11:05 1016 30 845 24.95 6.5 43.7 77 2.8 37.1
11:10 1016 30 845 24.95 6.6 43.8 77 2.9 37.2
11:15 1016 30 846 24.98 6.7 44 77 2.9 37.1
11:20 1016 30 846 24.98 6.7 44 76 2.7 36.9
11:25 1016 30 846 24.98 6.7 44.1 76 2.9 37.2
11:30 1016 30 846 24.98 6.8 44.3 76 3 37.4
11:35 1016 30 846 24.98 7 44.6 76 3.1 37.5
11:40 1016 30 846 24.98 7.2 44.9 76 3.2 37.7
11:45 1016 30 845 24.95 7.8 46 73 3.3 37.9
11:50 1016 30 845 24.95 7.8 46 73 3.3 37.9
11:55 1016 30 846 24.98 7.8 46.1 73 3.3 37.9
12:00 1016 30 845 24.95 7.8 46.1 72 3.2 37.7
12:05 1016 30 846 24.98 7.8 46 72 3 37.4
12:10 1016 30 846 24.98 8 46.4 70 2.9 37.3
12:15 1016 30 846 24.98 8.3 46.9 71 3.3 37.9
12:20 1017 30.03 846 24.98 8.2 46.7 72 3.4 38.2
12:25 1017 30.03 846 24.98 8.3 47 71 3.4 38.1
12:30 1017 30.03 846 24.98 8.2 46.7 71 3.2 37.8
12:35 1017 30.03 846 24.98 8 46.3 72 3.2 37.7
12:40 1017 30.03 846 24.98 8 46.3 73 3.4 38
12:45 1017 30.03 846 24.98 7.9 46.1 73 3.2 37.8
12:50 1017 30.03 846 24.98 7.8 46.1 72 3.1 37.6
12:55 1017 30.03 846 24.98 7.9 46.3 72 3.2 37.8
13:00 1017 30.03 846 24.98 8 46.4 72 3.2 37.8
13:05 1017 30.03 846 24.98 7.9 46.3 72 3.2 37.7
13:10 1017 30.03 846 24.98 8 46.3 71 3 37.4
13:15 1017 30.03 846 24.98 8.1 46.6 72 3.4 38.1
13:20 1017 30.03 846 24.98 8.3 47 71 3.4 38.2
13:25 1017 30.03 846 24.98 8.7 47.7 68 3.1 37.7
13:30 1017 30.03 846 24.98 8.7 47.6 69 3.2 37.8
13:35 1017 30.03 846 24.98 8.2 46.8 70 3.2 37.7
13:40 1017 30.03 846 24.98 8.3 47 70 3.3 37.9
13:45 1017 30.03 846 24.98 8.3 46.9 71 3.4 38.1
13:50 1017 30.03 846 24.98 8.2 46.8 72 3.5 38.3
13:55 1017 30.03 846 24.98 8.3 47 71 3.5 38.3
14:00 1017 30.03 846 24.98 8.2 46.7 71 3.2 37.7
14:05 1017 30.03 846 24.98 8.4 47.1 69 3.1 37.5
14:10 1017 30.03 846 24.98 8.7 47.6 68 3 37.5
14:15 1017 30.03 846 24.98 8.7 47.7 69 3.3 38
14:20 1017 30.03 846 24.98 8.2 46.8 71 3.3 37.9
14:25 1017 30.03 846 24.98 8.2 46.7 70 3.1 37.6
14:30 1017 30.03 846 24.98 8.1 46.5 71 3.1 37.6
14:35 1017 30.03 846 24.98 8 46.4 71 3.1 37.6
14:40 1017 30.03 846 24.98 8.1 46.6 70 3.1 37.5
14:45 1017 30.03 846 24.98 8.2 46.8 70 3 37.5
14:50 1017 30.03 846 24.98 8.2 46.7 70 3.1 37.6
14:55 1017 30.03 846 24.98 8.1 46.6 71 3.2 37.8
15:00 1017 30.03 846 24.98 7.9 46.3 72 3.2 37.7
15:05 1017 30.03 846 24.98 7.7 45.8 72 3 37.5
15:10 1017 30.03 846 24.98 7.5 45.5 73 3 37.4
15:15 1017 30.03 846 24.98 7.3 45.2 73 2.9 37.2
15:20 1017 30.03 846 24.98 7.3 45.1 74 2.9 37.2
15:25 1017 30.03 846 24.98 7.3 45.1 73 2.8 37
15:30 1017 30.03 846 24.98 7.3 45.1 74 3 37.4
15:35 1017 30.03 846 24.98 7.2 45 75 3.1 37.7
15:40 1017 30.03 846 24.98 7.1 44.8 77 3.3 37.9
15:45 1017 30.03 846 24.98 7.1 44.7 78 3.6 38.4
15:50 1017 30.03 846 24.98 7 44.6 79 3.6 38.5
15:55 1017 30.03 846 24.98 6.7 44.1 80 3.5 38.4
16:00 1017 30.03 846 24.98 6.7 44 80 3.5 38.2
16:05 1017 30.03 846 24.98 6.6 43.9 80 3.4 38.2
16:10 1017 30.03 846 24.98 6.6 43.8 80 3.4 38.1
16:15 1017 30.03 846 24.98 6.5 43.7 80 3.3 38
16:20 1017 30.03 846 24.98 6.4 43.6 79 3.2 37.7
16:25 1017 30.03 846 24.98 6.5 43.6 80 3.2 37.7
16:30 1017 30.03 846 24.98 6.4 43.5 80 3.2 37.8
16:35 1017 30.03 846 24.98 6.4 43.6 80 3.2 37.7
16:40 1017 30.03 846 24.98 6.4 43.6 80 3.2 37.7
16:45 1017 30.03 846 24.98 6.4 43.5 81 3.3 38
16:50 1017 30.03 846 24.98 6.2 43.2 81 3.2 37.8
16:55 1017 30.03 846 24.98 6.2 43.1 81 3.2 37.8
17:00 1017 30.03 846 24.98 6.1 42.9 82 3.3 37.9
17:05 1017 30.03 846 24.98 5.9 42.7 84 3.4 38.1
17:10 1017 30.03 846 24.98 5.8 42.4 85 3.4 38.1
17:15 1017 30.03 846 24.98 5.7 42.3 85 3.4 38.2
17:20 1017 30.03 846 24.98 5.8 42.4 86 3.6 38.5
17:25 1017 30.03 846 24.98 5.9 42.5 86 3.8 38.8
17:30 1017 30.03 846 24.98 6 42.7 86 3.7 38.7
17:35 1017 30.03 846 24.98 6.1 42.9 85 3.7 38.6
17:40 1017 30.03 846 24.98 6.1 42.9 84 3.6 38.5
17:45 1017 30.03 846 24.98 5.9 42.7 84 3.5 38.3
17:50 1017 30.03 846 24.98 6 42.8 85 3.6 38.5
17:55 1017 30.03 846 24.98 6.1 43 86 3.9 39
18:00 1017 30.03 846 24.98 6.2 43.1 85 3.8 38.8
18:05 1017 30.03 846 24.98 6.2 43.1 84 3.6 38.5
18:10 1017 30.03 846 24.98 6.2 43.2 83 3.6 38.5
18:15 1017 30.03 847 25.01 6.2 43.1 83 3.6 38.4
18:20 1017 30.03 847 25.01 6.1 43 84 3.5 38.4
18:25 1017 30.03 846 24.98 6.1 43 84 3.6 38.5
18:30 1017 30.03 846 24.98 6.1 42.9 84 3.5 38.3
18:35 1017 30.03 846 24.98 6 42.9 83 3.3 38
18:40 1017 30.03 846 24.98 6 42.8 83 3.4 38.2
18:45 1017 30.03 846 24.98 6 42.8 83 3.3 37.9
18:50 1017 30.03 846 24.98 6 42.9 83 3.3 37.9
18:55 1017 30.03 847 25.01 5.9 42.6 83 3.3 38
19:00 1017 30.03 846 24.98 5.8 42.4 83 3.2 37.7
19:05 1017 30.03 847 25.01 5.7 42.3 83 3 37.5
19:10 1017 30.03 847 25.01 5.6 42.1 83 2.9 37.3
19:15 1017 30.03 847 25.01 5.5 41.9 83 2.9 37.3
19:20 1017 30.03 847 25.01 5.5 41.8 84 3 37.4
19:25 1018 30.06 847 25.01 5.4 41.8 84 2.9 37.3
19:30 1018 30.06 847 25.01 5.4 41.7 84 2.9 37.3
19:35 1018 30.06 847 25.01 5.3 41.6 84 2.9 37.2
19:40 1018 30.06 847 25.01 5.3 41.5 85 3 37.4
19:45 1018 30.06 847 25.01 5.2 41.4 86 3 37.4
19:50 1018 30.06 847 25.01 5.2 41.3 86 3.1 37.5
19:55 1018 30.06 847 25.01 5.1 41.3 87 3.1 37.5
20:00 1018 30.06 847 25.01 5.1 41.2 87 3.1 37.6
20:05 1018 30.06 847 25.01 5.1 41.2 87 3.1 37.5
20:10 1018 30.06 847 25.01 5.1 41.1 87 3 37.4
20:15 1018 30.06 847 25.01 5 41.1 86 3 37.3
20:20 1018 30.06 847 25.01 5 41 87 3 37.3
20:25 1018 30.06 847 25.01 5 41 86 2.9 37.2
20:30 1018 30.06 847 25.01 5 41 87 2.9 37.3
20:35 1018 30.06 847 25.01 5 41 87 3 37.3
20:40 1018 30.06 847 25.01 4.9 40.9 87 3 37.3
20:45 1018 30.06 847 25.01 4.9 40.9 87 3 37.4
20:50 1018 30.06 847 25.01 4.9 40.8 87 3 37.3
20:55 1018 30.06 848 25.04 4.9 40.8 87 2.9 37.1
21:00 1018 30.06 848 25.04 4.9 40.9 86 2.9 37.1
21:05 1018 30.06 848 25.04 4.9 40.8 87 2.9 37.1
21:10 1018 30.06 848 25.04 4.8 40.7 87 2.8 37
21:15 1019 30.09 848 25.04 4.8 40.7 87 2.8 37
21:20 1019 30.09 848 25.04 4.9 40.8 86 2.7 36.9
21:25 1019 30.09 848 25.04 5 41 85 2.7 36.9
21:30 1019 30.09 848 25.04 5 41 85 2.8 37
21:35 1019 30.09 848 25.04 5 41 86 2.8 37.1
21:40 1019 30.09 848 25.04 4.9 40.9 86 2.9 37.1
21:45 1019 30.09 848 25.04 4.9 40.8 86 2.8 37.1
21:50 1019 30.09 848 25.04 4.8 40.7 87 2.9 37.2
21:55 1019 30.09 848 25.04 4.8 40.7 87 2.8 37.1
22:00 1019 30.09 848 25.04 4.8 40.6 87 2.8 37.1
22:05 1019 30.09 848 25.04 4.7 40.5 87 2.8 37.1
22:10 1019 30.09 848 25.04 4.7 40.5 88 2.9 37.2
22:15 1019 30.09 848 25.04 4.7 40.5 88 2.9 37.1
22:20 1019 30.09 848 25.04 4.7 40.4 88 2.9 37.1
22:25 1019 30.09 848 25.04 4.6 40.3 88 2.8 37.1
22:30 1019 30.09 848 25.04 4.7 40.4 88 2.8 37.1
22:35 1019 30.09 849 25.07 4.7 40.5 87 2.8 37
22:40 1019 30.09 849 25.07 4.7 40.5 87 2.8 37
22:45 1019 30.09 849 25.07 4.7 40.5 86 2.6 36.7
22:50 1019 30.09 849 25.07 4.8 40.6 86 2.7 36.8
22:55 1019 30.09 849 25.07 4.8 40.7 86 2.7 36.8
23:00 1019 30.09 849 25.07 4.7 40.5 86 2.7 36.8
23:05 1019 30.09 849 25.07 4.7 40.5 86 2.7 36.8
23:10 1019 30.09 849 25.07 4.8 40.6 86 2.6 36.7
23:15 1019 30.09 849 25.07 4.8 40.6 85 2.6 36.6
23:20 1020 30.12 849 25.07 4.8 40.6 85 2.5 36.4
23:25 1020 30.12 849 25.07 4.8 40.7 85 2.5 36.5
23:30 1020 30.12 849 25.07 4.8 40.7 84 2.4 36.4
23:35 1019 30.09 849 25.07 4.8 40.7 84 2.4 36.4
23:40 1020 30.12 849 25.07 4.8 40.7 85 2.5 36.5
23:45 1020 30.12 849 25.07 4.8 40.6 84 2.4 36.3
23:50 1020 30.12 849 25.07 4.9 40.7 84 2.4 36.4
23:55 1020 30.12 849 25.07 4.8 40.7 85 2.5 36.5
24:00 1020 30.12 849 25.07 4.8 40.6 85 2.5 36.4